sensor_id;sensor_type;location;lat;lon;timestamp;pressure;altitude;pressure_sealevel;temperature;humidity
80137;BME280;69466;55.948;37.484;2023-07-31T00:01:37;98768.53;;;15.41;nan
80137;BME280;69466;55.948;37.484;2023-07-31T00:04:03;98773.75;;;15.42;nan
80137;BME280;69466;55.948;37.484;2023-07-31T00:06:30;98778.41;;;15.47;nan
80137;BME280;69466;55.948;37.484;2023-07-31T00:08:56;98772.38;;;15.50;nan
80137;BME280;69466;55.948;37.484;2023-07-31T00:11:21;98769.38;;;15.46;nan
80137;BME280;69466;55.948;37.484;2023-07-31T00:13:47;98774.59;;;15.48;nan
80137;BME280;69466;55.948;37.484;2023-07-31T00:16:13;98779.75;;;15.49;nan
80137;BME280;69466;55.948;37.484;2023-07-31T00:18:39;98777.03;;;15.44;nan
80137;BME280;69466;55.948;37.484;2023-07-31T00:21:05;98766.91;;;15.40;nan
80137;BME280;69466;55.948;37.484;2023-07-31T00:23:31;98772.13;;;15.46;nan
80137;BME280;69466;55.948;37.484;2023-07-31T00:25:56;98768.59;;;15.51;nan
80137;BME280;69466;55.948;37.484;2023-07-31T00:28:22;98777.38;;;15.58;nan
80137;BME280;69466;55.948;37.484;2023-07-31T00:30:48;98765.59;;;15.58;nan
80137;BME280;69466;55.948;37.484;2023-07-31T00:33:14;98778.72;;;15.66;nan
80137;BME280;69466;55.948;37.484;2023-07-31T00:35:40;98774.09;;;15.66;nan
80137;BME280;69466;55.948;37.484;2023-07-31T00:38:05;98775.44;;;15.69;nan
80137;BME280;69466;55.948;37.484;2023-07-31T00:40:36;98775.44;;;15.64;nan
80137;BME280;69466;55.948;37.484;2023-07-31T00:43:03;98768.63;;;15.66;nan
80137;BME280;69466;55.948;37.484;2023-07-31T00:45:29;98770.78;;;15.64;nan
80137;BME280;69466;55.948;37.484;2023-07-31T00:47:56;98759.31;;;15.52;nan
80137;BME280;69466;55.948;37.484;2023-07-31T00:50:25;98763.34;;;15.49;nan
80137;BME280;69466;55.948;37.484;2023-07-31T00:52:51;98768.56;;;15.46;nan
80137;BME280;69466;55.948;37.484;2023-07-31T00:55:17;98759.25;;;15.47;nan
80137;BME280;69466;55.948;37.484;2023-07-31T00:57:45;98756.53;;;15.47;nan
80137;BME280;69466;55.948;37.484;2023-07-31T01:00:11;98757.63;;;15.46;nan
80137;BME280;69466;55.948;37.484;2023-07-31T01:02:37;98766.91;;;15.50;nan
80137;BME280;69466;55.948;37.484;2023-07-31T01:05:04;98765.88;;;15.56;nan
80137;BME280;69466;55.948;37.484;2023-07-31T01:10:23;98771.06;;;15.58;nan
80137;BME280;69466;55.948;37.484;2023-07-31T01:12:53;98758.75;;;15.55;nan
80137;BME280;69466;55.948;37.484;2023-07-31T01:15:20;98767.25;;;15.54;nan
80137;BME280;69466;55.948;37.484;2023-07-31T01:17:46;98752.44;;;15.39;nan
80137;BME280;69466;55.948;37.484;2023-07-31T01:20:17;98770.47;;;15.45;nan
80137;BME280;69466;55.948;37.484;2023-07-31T01:27:59;98762.00;;;15.47;nan
80137;BME280;69466;55.948;37.484;2023-07-31T01:30:31;98768.81;;;15.49;nan
80137;BME280;69466;55.948;37.484;2023-07-31T01:32:59;98771.56;;;15.49;nan
80137;BME280;69466;55.948;37.484;2023-07-31T01:35:29;98769.66;;;15.50;nan
80137;BME280;69466;55.948;37.484;2023-07-31T01:37:55;98772.69;;;15.48;nan
80137;BME280;69466;55.948;37.484;2023-07-31T01:40:21;98759.81;;;15.44;nan
80137;BME280;69466;55.948;37.484;2023-07-31T01:42:47;98769.94;;;15.48;nan
80137;BME280;69466;55.948;37.484;2023-07-31T01:45:14;98768.59;;;15.51;nan
80137;BME280;69466;55.948;37.484;2023-07-31T01:47:40;98774.34;;;15.55;nan
80137;BME280;69466;55.948;37.484;2023-07-31T01:50:06;98755.75;;;15.57;nan
80137;BME280;69466;55.948;37.484;2023-07-31T01:52:32;98773.00;;;15.67;nan
80137;BME280;69466;55.948;37.484;2023-07-31T01:54:58;98769.44;;;15.72;nan
80137;BME280;69466;55.948;37.484;2023-07-31T01:57:24;98778.44;;;15.72;nan
80137;BME280;69466;55.948;37.484;2023-07-31T01:59:50;98765.88;;;15.71;nan
80137;BME280;69466;55.948;37.484;2023-07-31T02:02:16;98769.41;;;15.82;nan
80137;BME280;69466;55.948;37.484;2023-07-31T02:04:43;98757.13;;;15.74;nan
80137;BME280;69466;55.948;37.484;2023-07-31T02:07:08;98777.91;;;15.90;nan
80137;BME280;69466;55.948;37.484;2023-07-31T02:09:34;98772.16;;;15.92;nan
80137;BME280;69466;55.948;37.484;2023-07-31T02:16:47;98780.09;;;15.99;nan
80137;BME280;69466;55.948;37.484;2023-07-31T02:19:13;98773.81;;;16.03;nan
80137;BME280;69466;55.948;37.484;2023-07-31T02:21:38;98773.25;;;16.06;nan
80137;BME280;69466;55.948;37.484;2023-07-31T02:24:04;98775.97;;;16.06;nan
80137;BME280;69466;55.948;37.484;2023-07-31T02:26:30;98785.53;;;16.09;nan
80137;BME280;69466;55.948;37.484;2023-07-31T02:28:56;98785.00;;;16.12;nan
80137;BME280;69466;55.948;37.484;2023-07-31T02:31:22;98782.53;;;16.15;nan
80137;BME280;69466;55.948;37.484;2023-07-31T02:33:47;98780.06;;;16.14;nan
80137;BME280;69466;55.948;37.484;2023-07-31T02:36:13;98788.00;;;16.20;nan
80137;BME280;69466;55.948;37.484;2023-07-31T02:38:40;98787.44;;;16.18;nan
80137;BME280;69466;55.948;37.484;2023-07-31T02:41:06;98774.00;;;16.27;nan
80137;BME280;69466;55.948;37.484;2023-07-31T02:43:31;98779.72;;;16.61;nan
80137;BME280;69466;55.948;37.484;2023-07-31T02:45:58;98773.59;;;18.11;nan
80137;BME280;69466;55.948;37.484;2023-07-31T02:48:24;98769.13;;;19.71;nan
80137;BME280;69466;55.948;37.484;2023-07-31T02:50:50;98767.59;;;21.39;nan
80137;BME280;69466;55.948;37.484;2023-07-31T02:53:16;98763.56;;;22.57;nan
80137;BME280;69466;55.948;37.484;2023-07-31T02:55:42;98760.41;;;23.89;nan
80137;BME280;69466;55.948;37.484;2023-07-31T02:58:08;98768.38;;;24.88;nan
80137;BME280;69466;55.948;37.484;2023-07-31T03:00:33;98749.91;;;25.63;nan
80137;BME280;69466;55.948;37.484;2023-07-31T03:02:59;98759.22;;;26.21;nan
80137;BME280;69466;55.948;37.484;2023-07-31T03:05:27;98758.19;;;27.19;nan
80137;BME280;69466;55.948;37.484;2023-07-31T03:07:52;98763.75;;;27.83;nan
80137;BME280;69466;55.948;37.484;2023-07-31T03:10:18;98775.47;;;28.44;nan
80137;BME280;69466;55.948;37.484;2023-07-31T03:12:48;98769.56;;;28.93;nan
80137;BME280;69466;55.948;37.484;2023-07-31T03:15:14;98768.50;;;29.64;nan
80137;BME280;69466;55.948;37.484;2023-07-31T03:17:40;98766.81;;;29.78;nan
80137;BME280;69466;55.948;37.484;2023-07-31T03:20:06;98769.25;;;30.37;nan
80137;BME280;69466;55.948;37.484;2023-07-31T03:22:32;98758.03;;;30.37;nan
80137;BME280;69466;55.948;37.484;2023-07-31T03:24:58;98755.03;;;30.46;nan
80137;BME280;69466;55.948;37.484;2023-07-31T03:27:23;98765.69;;;31.05;nan
80137;BME280;69466;55.948;37.484;2023-07-31T03:29:49;98762.28;;;31.45;nan
80137;BME280;69466;55.948;37.484;2023-07-31T03:32:17;98764.13;;;31.34;nan
80137;BME280;69466;55.948;37.484;2023-07-31T03:34:42;98762.88;;;31.05;nan
80137;BME280;69466;55.948;37.484;2023-07-31T03:37:08;98768.81;;;31.53;nan
80137;BME280;69466;55.948;37.484;2023-07-31T03:39:37;98761.38;;;31.94;nan
80137;BME280;69466;55.948;37.484;2023-07-31T03:42:03;98772.19;;;32.22;nan
80137;BME280;69466;55.948;37.484;2023-07-31T03:44:28;98779.22;;;32.45;nan
80137;BME280;69466;55.948;37.484;2023-07-31T03:46:54;98768.13;;;32.19;nan
80137;BME280;69466;55.948;37.484;2023-07-31T03:49:20;98774.81;;;32.81;nan
80137;BME280;69466;55.948;37.484;2023-07-31T03:51:46;98757.50;;;32.76;nan
80137;BME280;69466;55.948;37.484;2023-07-31T03:54:12;98755.09;;;33.22;nan
80137;BME280;69466;55.948;37.484;2023-07-31T03:56:38;98754.97;;;33.11;nan
80137;BME280;69466;55.948;37.484;2023-07-31T03:59:04;98764.59;;;33.07;nan
80137;BME280;69466;55.948;37.484;2023-07-31T04:01:30;98763.31;;;33.48;nan
80137;BME280;69466;55.948;37.484;2023-07-31T04:03:56;98765.53;;;33.21;nan
80137;BME280;69466;55.948;37.484;2023-07-31T04:06:22;98766.09;;;33.45;nan
80137;BME280;69466;55.948;37.484;2023-07-31T04:08:47;98767.28;;;33.44;nan
80137;BME280;69466;55.948;37.484;2023-07-31T04:11:13;98766.09;;;33.41;nan
80137;BME280;69466;55.948;37.484;2023-07-31T04:13:39;98755.94;;;33.91;nan
80137;BME280;69466;55.948;37.484;2023-07-31T04:16:05;98753.81;;;33.70;nan
80137;BME280;69466;55.948;37.484;2023-07-31T04:18:30;98774.25;;;33.64;nan
80137;BME280;69466;55.948;37.484;2023-07-31T04:20:58;98770.75;;;33.77;nan
80137;BME280;69466;55.948;37.484;2023-07-31T04:23:25;98771.00;;;33.58;nan
80137;BME280;69466;55.948;37.484;2023-07-31T04:25:50;98760.00;;;34.04;nan
80137;BME280;69466;55.948;37.484;2023-07-31T04:28:17;98755.34;;;34.61;nan
80137;BME280;69466;55.948;37.484;2023-07-31T04:30:43;98770.31;;;34.83;nan
80137;BME280;69466;55.948;37.484;2023-07-31T04:33:09;98765.06;;;34.96;nan
80137;BME280;69466;55.948;37.484;2023-07-31T04:35:35;98776.34;;;35.10;nan
80137;BME280;69466;55.948;37.484;2023-07-31T04:38:01;98776.34;;;35.21;nan
80137;BME280;69466;55.948;37.484;2023-07-31T04:40:27;98768.19;;;34.52;nan
80137;BME280;69466;55.948;37.484;2023-07-31T04:42:53;98772.75;;;35.27;nan
80137;BME280;69466;55.948;37.484;2023-07-31T04:45:19;98769.75;;;36.02;nan
80137;BME280;69466;55.948;37.484;2023-07-31T04:47:45;98779.50;;;35.62;nan
80137;BME280;69466;55.948;37.484;2023-07-31T04:50:11;98778.13;;;36.26;nan
80137;BME280;69466;55.948;37.484;2023-07-31T04:52:37;98776.91;;;36.34;nan
80137;BME280;69466;55.948;37.484;2023-07-31T04:55:03;98765.47;;;36.56;nan
80137;BME280;69466;55.948;37.484;2023-07-31T04:57:31;98767.06;;;36.60;nan
80137;BME280;69466;55.948;37.484;2023-07-31T04:59:56;98783.44;;;36.86;nan
80137;BME280;69466;55.948;37.484;2023-07-31T05:02:22;98771.16;;;37.11;nan
80137;BME280;69466;55.948;37.484;2023-07-31T05:04:48;98770.25;;;37.21;nan
80137;BME280;69466;55.948;37.484;2023-07-31T05:07:14;98767.28;;;36.87;nan
80137;BME280;69466;55.948;37.484;2023-07-31T05:09:39;98773.91;;;36.63;nan
80137;BME280;69466;55.948;37.484;2023-07-31T05:12:05;98780.59;;;36.17;nan
80137;BME280;69466;55.948;37.484;2023-07-31T05:14:31;98765.50;;;36.45;nan
80137;BME280;69466;55.948;37.484;2023-07-31T05:16:57;98765.66;;;36.20;nan
80137;BME280;69466;55.948;37.484;2023-07-31T05:19:23;98773.06;;;36.69;nan
80137;BME280;69466;55.948;37.484;2023-07-31T05:21:49;98770.81;;;37.02;nan
80137;BME280;69466;55.948;37.484;2023-07-31T05:24:15;98769.84;;;36.67;nan
80137;BME280;69466;55.948;37.484;2023-07-31T05:26:40;98773.94;;;36.56;nan
80137;BME280;69466;55.948;37.484;2023-07-31T05:29:06;98767.06;;;37.15;nan
80137;BME280;69466;55.948;37.484;2023-07-31T05:31:32;98779.81;;;36.86;nan
80137;BME280;69466;55.948;37.484;2023-07-31T05:33:58;98766.88;;;37.37;nan
80137;BME280;69466;55.948;37.484;2023-07-31T05:36:24;98767.59;;;36.96;nan
80137;BME280;69466;55.948;37.484;2023-07-31T05:38:50;98776.50;;;36.95;nan
80137;BME280;69466;55.948;37.484;2023-07-31T05:41:15;98772.28;;;37.20;nan
80137;BME280;69466;55.948;37.484;2023-07-31T05:43:41;98776.03;;;37.51;nan
80137;BME280;69466;55.948;37.484;2023-07-31T05:46:09;98771.56;;;37.50;nan
80137;BME280;69466;55.948;37.484;2023-07-31T05:48:35;98781.22;;;37.60;nan
80137;BME280;69466;55.948;37.484;2023-07-31T05:51:01;98770.00;;;37.87;nan
80137;BME280;69466;55.948;37.484;2023-07-31T05:53:27;98788.53;;;37.91;nan
80137;BME280;69466;55.948;37.484;2023-07-31T05:55:52;98786.03;;;37.18;nan
80137;BME280;69466;55.948;37.484;2023-07-31T05:58:18;98788.16;;;37.04;nan
80137;BME280;69466;55.948;37.484;2023-07-31T06:00:44;98784.38;;;37.24;nan
80137;BME280;69466;55.948;37.484;2023-07-31T06:03:10;98783.00;;;37.43;nan
80137;BME280;69466;55.948;37.484;2023-07-31T06:05:36;98786.63;;;37.40;nan
80137;BME280;69466;55.948;37.484;2023-07-31T06:08:02;98791.81;;;37.52;nan
80137;BME280;69466;55.948;37.484;2023-07-31T06:10:28;98776.78;;;37.59;nan
80137;BME280;69466;55.948;37.484;2023-07-31T06:12:54;98776.41;;;37.57;nan
80137;BME280;69466;55.948;37.484;2023-07-31T06:15:20;98773.41;;;37.26;nan
80137;BME280;69466;55.948;37.484;2023-07-31T06:17:46;98775.41;;;37.33;nan
80137;BME280;69466;55.948;37.484;2023-07-31T06:20:12;98770.66;;;37.64;nan
80137;BME280;69466;55.948;37.484;2023-07-31T06:22:37;98770.13;;;37.76;nan
80137;BME280;69466;55.948;37.484;2023-07-31T06:25:04;98774.03;;;37.89;nan
80137;BME280;69466;55.948;37.484;2023-07-31T06:27:30;98775.47;;;38.04;nan
80137;BME280;69466;55.948;37.484;2023-07-31T06:29:56;98772.69;;;37.97;nan
80137;BME280;69466;55.948;37.484;2023-07-31T06:32:23;98768.16;;;38.07;nan
80137;BME280;69466;55.948;37.484;2023-07-31T06:34:49;98771.66;;;38.18;nan
80137;BME280;69466;55.948;37.484;2023-07-31T06:37:16;98772.03;;;38.20;nan
80137;BME280;69466;55.948;37.484;2023-07-31T06:39:42;98773.41;;;38.08;nan
80137;BME280;69466;55.948;37.484;2023-07-31T06:42:08;98774.84;;;37.86;nan
80137;BME280;69466;55.948;37.484;2023-07-31T06:44:35;98771.13;;;37.93;nan
80137;BME280;69466;55.948;37.484;2023-07-31T06:47:01;98774.16;;;38.12;nan
80137;BME280;69466;55.948;37.484;2023-07-31T06:49:27;98775.66;;;37.53;nan
80137;BME280;69466;55.948;37.484;2023-07-31T06:51:53;98770.28;;;37.62;nan
80137;BME280;69466;55.948;37.484;2023-07-31T06:54:19;98780.66;;;37.72;nan
80137;BME280;69466;55.948;37.484;2023-07-31T06:56:45;98784.13;;;37.53;nan
80137;BME280;69466;55.948;37.484;2023-07-31T06:59:11;98762.22;;;37.94;nan
80137;BME280;69466;55.948;37.484;2023-07-31T07:01:37;98777.69;;;38.20;nan
80137;BME280;69466;55.948;37.484;2023-07-31T07:04:02;98781.25;;;37.94;nan
80137;BME280;69466;55.948;37.484;2023-07-31T07:06:29;98775.50;;;38.01;nan
80137;BME280;69466;55.948;37.484;2023-07-31T07:08:54;98774.44;;;37.47;nan
80137;BME280;69466;55.948;37.484;2023-07-31T07:11:20;98777.53;;;37.63;nan
80137;BME280;69466;55.948;37.484;2023-07-31T07:13:46;98777.44;;;37.73;nan
80137;BME280;69466;55.948;37.484;2023-07-31T07:16:12;98785.50;;;37.75;nan
80137;BME280;69466;55.948;37.484;2023-07-31T07:18:38;98783.63;;;37.95;nan
80137;BME280;69466;55.948;37.484;2023-07-31T07:21:04;98782.91;;;37.50;nan
80137;BME280;69466;55.948;37.484;2023-07-31T07:23:30;98781.81;;;38.15;nan
80137;BME280;69466;55.948;37.484;2023-07-31T07:25:56;98777.41;;;38.11;nan
80137;BME280;69466;55.948;37.484;2023-07-31T07:28:22;98784.00;;;38.01;nan
80137;BME280;69466;55.948;37.484;2023-07-31T07:30:52;98777.25;;;37.50;nan
80137;BME280;69466;55.948;37.484;2023-07-31T07:33:19;98778.69;;;37.69;nan
80137;BME280;69466;55.948;37.484;2023-07-31T07:35:45;98780.25;;;37.33;nan
80137;BME280;69466;55.948;37.484;2023-07-31T07:38:11;98784.72;;;37.75;nan
80137;BME280;69466;55.948;37.484;2023-07-31T07:40:40;98775.78;;;37.76;nan
80137;BME280;69466;55.948;37.484;2023-07-31T07:43:07;98771.31;;;37.38;nan
80137;BME280;69466;55.948;37.484;2023-07-31T07:45:33;98771.94;;;37.15;nan
80137;BME280;69466;55.948;37.484;2023-07-31T07:47:58;98766.91;;;36.81;nan
80137;BME280;69466;55.948;37.484;2023-07-31T07:50:25;98775.09;;;35.61;nan
80137;BME280;69466;55.948;37.484;2023-07-31T07:52:50;98778.72;;;35.72;nan
80137;BME280;69466;55.948;37.484;2023-07-31T07:55:16;98766.63;;;35.57;nan
80137;BME280;69466;55.948;37.484;2023-07-31T07:57:42;98767.06;;;35.52;nan
80137;BME280;69466;55.948;37.484;2023-07-31T08:00:10;98768.28;;;35.65;nan
80137;BME280;69466;55.948;37.484;2023-07-31T08:02:43;98770.25;;;35.75;nan
80137;BME280;69466;55.948;37.484;2023-07-31T08:05:09;98766.63;;;35.61;nan
80137;BME280;69466;55.948;37.484;2023-07-31T08:07:35;98770.66;;;35.67;nan
80137;BME280;69466;55.948;37.484;2023-07-31T08:10:01;98778.75;;;35.50;nan
80137;BME280;69466;55.948;37.484;2023-07-31T08:12:31;98773.94;;;35.40;nan
80137;BME280;69466;55.948;37.484;2023-07-31T08:14:57;98778.78;;;35.04;nan
80137;BME280;69466;55.948;37.484;2023-07-31T08:17:23;98779.13;;;34.64;nan
80137;BME280;69466;55.948;37.484;2023-07-31T08:19:49;98788.03;;;33.76;nan
80137;BME280;69466;55.948;37.484;2023-07-31T08:22:15;98770.38;;;33.24;nan
80137;BME280;69466;55.948;37.484;2023-07-31T08:24:40;98769.53;;;33.20;nan
80137;BME280;69466;55.948;37.484;2023-07-31T08:27:06;98782.31;;;33.14;nan
80137;BME280;69466;55.948;37.484;2023-07-31T08:29:32;98766.91;;;32.53;nan
80137;BME280;69466;55.948;37.484;2023-07-31T08:31:58;98791.38;;;32.93;nan
80137;BME280;69466;55.948;37.484;2023-07-31T08:34:24;98780.66;;;33.06;nan
80137;BME280;69466;55.948;37.484;2023-07-31T08:36:50;98777.66;;;32.85;nan
80137;BME280;69466;55.948;37.484;2023-07-31T08:39:17;98777.28;;;32.49;nan
80137;BME280;69466;55.948;37.484;2023-07-31T08:41:43;98782.47;;;32.10;nan
80137;BME280;69466;55.948;37.484;2023-07-31T08:44:10;98776.22;;;31.94;nan
80137;BME280;69466;55.948;37.484;2023-07-31T08:46:37;98766.94;;;31.60;nan
80137;BME280;69466;55.948;37.484;2023-07-31T08:49:07;98781.34;;;31.89;nan
80137;BME280;69466;55.948;37.484;2023-07-31T08:51:34;98781.81;;;31.38;nan
80137;BME280;69466;55.948;37.484;2023-07-31T08:54:01;98792.28;;;31.15;nan
80137;BME280;69466;55.948;37.484;2023-07-31T08:56:32;98779.78;;;30.90;nan
80137;BME280;69466;55.948;37.484;2023-07-31T08:58:59;98789.16;;;30.74;nan
80137;BME280;69466;55.948;37.484;2023-07-31T09:01:29;98783.81;;;30.66;nan
80137;BME280;69466;55.948;37.484;2023-07-31T09:03:58;98778.34;;;30.54;nan
80137;BME280;69466;55.948;37.484;2023-07-31T09:06:26;98791.25;;;30.81;nan
80137;BME280;69466;55.948;37.484;2023-07-31T09:08:53;98782.34;;;30.53;nan
80137;BME280;69466;55.948;37.484;2023-07-31T09:11:21;98778.00;;;30.17;nan
80137;BME280;69466;55.948;37.484;2023-07-31T09:13:47;98778.69;;;30.10;nan
80137;BME280;69466;55.948;37.484;2023-07-31T09:16:14;98774.28;;;30.09;nan
80137;BME280;69466;55.948;37.484;2023-07-31T09:18:56;98777.78;;;29.87;nan
80137;BME280;69466;55.948;37.484;2023-07-31T09:21:23;98782.09;;;29.84;nan
80137;BME280;69466;55.948;37.484;2023-07-31T09:23:49;98773.75;;;29.49;nan
80137;BME280;69466;55.948;37.484;2023-07-31T09:26:35;98782.16;;;29.49;nan
80137;BME280;69466;55.948;37.484;2023-07-31T09:29:07;98785.75;;;29.50;nan
80137;BME280;69466;55.948;37.484;2023-07-31T09:31:43;98787.53;;;29.58;nan
80137;BME280;69466;55.948;37.484;2023-07-31T09:34:10;98778.25;;;29.54;nan
80137;BME280;69466;55.948;37.484;2023-07-31T09:36:44;98785.59;;;29.27;nan
80137;BME280;69466;55.948;37.484;2023-07-31T09:39:11;98785.19;;;29.10;nan
80137;BME280;69466;55.948;37.484;2023-07-31T09:41:43;98785.25;;;28.97;nan
80137;BME280;69466;55.948;37.484;2023-07-31T09:44:09;98781.75;;;28.85;nan
80137;BME280;69466;55.948;37.484;2023-07-31T09:46:36;98781.88;;;28.60;nan
80137;BME280;69466;55.948;37.484;2023-07-31T09:49:11;98779.25;;;28.52;nan
80137;BME280;69466;55.948;37.484;2023-07-31T09:51:38;98788.16;;;28.42;nan
80137;BME280;69466;55.948;37.484;2023-07-31T09:54:12;98776.09;;;28.38;nan
80137;BME280;69466;55.948;37.484;2023-07-31T09:56:48;98773.66;;;28.08;nan
80137;BME280;69466;55.948;37.484;2023-07-31T09:59:16;98782.47;;;28.23;nan
80137;BME280;69466;55.948;37.484;2023-07-31T10:01:44;98780.31;;;28.32;nan
80137;BME280;69466;55.948;37.484;2023-07-31T10:04:12;98781.50;;;28.46;nan
80137;BME280;69466;55.948;37.484;2023-07-31T10:06:40;98778.06;;;28.37;nan
80137;BME280;69466;55.948;37.484;2023-07-31T10:09:11;98780.06;;;28.52;nan
80137;BME280;69466;55.948;37.484;2023-07-31T10:11:44;98780.97;;;28.41;nan
80137;BME280;69466;55.948;37.484;2023-07-31T10:14:18;98781.91;;;28.17;nan
80137;BME280;69466;55.948;37.484;2023-07-31T10:16:45;98775.97;;;28.06;nan
80137;BME280;69466;55.948;37.484;2023-07-31T10:19:11;98778.22;;;28.01;nan
80137;BME280;69466;55.948;37.484;2023-07-31T10:21:37;98768.50;;;27.95;nan
80137;BME280;69466;55.948;37.484;2023-07-31T10:24:04;98787.22;;;27.82;nan
80137;BME280;69466;55.948;37.484;2023-07-31T10:26:35;98785.06;;;27.75;nan
80137;BME280;69466;55.948;37.484;2023-07-31T10:29:05;98774.81;;;27.80;nan
80137;BME280;69466;55.948;37.484;2023-07-31T10:31:32;98772.28;;;27.74;nan
80137;BME280;69466;55.948;37.484;2023-07-31T10:33:58;98786.88;;;27.84;nan
80137;BME280;69466;55.948;37.484;2023-07-31T10:36:25;98777.03;;;27.74;nan
80137;BME280;69466;55.948;37.484;2023-07-31T10:38:52;98765.16;;;27.49;nan
80137;BME280;69466;55.948;37.484;2023-07-31T10:41:28;98779.53;;;27.39;nan
80137;BME280;69466;55.948;37.484;2023-07-31T10:43:57;98784.06;;;27.44;nan
80137;BME280;69466;55.948;37.484;2023-07-31T10:46:23;98777.00;;;27.22;nan
80137;BME280;69466;55.948;37.484;2023-07-31T10:48:58;98784.31;;;27.26;nan
80137;BME280;69466;55.948;37.484;2023-07-31T10:51:33;98769.88;;;27.37;nan
80137;BME280;69466;55.948;37.484;2023-07-31T10:54:16;98776.75;;;27.39;nan
80137;BME280;69466;55.948;37.484;2023-07-31T10:56:50;98772.47;;;27.29;nan
80137;BME280;69466;55.948;37.484;2023-07-31T10:59:16;98766.78;;;27.26;nan
80137;BME280;69466;55.948;37.484;2023-07-31T11:01:50;98782.44;;;27.18;nan
80137;BME280;69466;55.948;37.484;2023-07-31T11:04:22;98773.94;;;27.27;nan
80137;BME280;69466;55.948;37.484;2023-07-31T11:07:01;98778.03;;;27.05;nan
80137;BME280;69466;55.948;37.484;2023-07-31T11:09:30;98768.41;;;27.15;nan
80137;BME280;69466;55.948;37.484;2023-07-31T11:11:57;98769.34;;;27.07;nan
80137;BME280;69466;55.948;37.484;2023-07-31T11:14:23;98774.81;;;27.03;nan
80137;BME280;69466;55.948;37.484;2023-07-31T11:16:52;98770.63;;;26.97;nan
80137;BME280;69466;55.948;37.484;2023-07-31T11:19:22;98771.88;;;27.00;nan
80137;BME280;69466;55.948;37.484;2023-07-31T11:21:49;98767.47;;;26.86;nan
80137;BME280;69466;55.948;37.484;2023-07-31T11:24:16;98779.09;;;26.88;nan
80137;BME280;69466;55.948;37.484;2023-07-31T11:26:50;98760.72;;;26.75;nan
80137;BME280;69466;55.948;37.484;2023-07-31T11:29:16;98770.22;;;26.74;nan
80137;BME280;69466;55.948;37.484;2023-07-31T11:31:43;98769.63;;;26.69;nan
80137;BME280;69466;55.948;37.484;2023-07-31T11:34:10;98775.56;;;26.79;nan
80137;BME280;69466;55.948;37.484;2023-07-31T11:36:36;98763.72;;;26.82;nan
80137;BME280;69466;55.948;37.484;2023-07-31T11:39:08;98765.47;;;26.75;nan
80137;BME280;69466;55.948;37.484;2023-07-31T11:41:34;98773.94;;;26.66;nan
80137;BME280;69466;55.948;37.484;2023-07-31T11:44:01;98766.94;;;26.48;nan
80137;BME280;69466;55.948;37.484;2023-07-31T11:46:30;98768.53;;;26.37;nan
80137;BME280;69466;55.948;37.484;2023-07-31T11:49:00;98773.88;;;26.30;nan
80137;BME280;69466;55.948;37.484;2023-07-31T11:51:27;98778.72;;;26.33;nan
80137;BME280;69466;55.948;37.484;2023-07-31T11:53:57;98781.59;;;26.24;nan
80137;BME280;69466;55.948;37.484;2023-07-31T11:56:25;98764.91;;;26.03;nan
80137;BME280;69466;55.948;37.484;2023-07-31T11:58:55;98780.03;;;26.15;nan
80137;BME280;69466;55.948;37.484;2023-07-31T12:01:23;98777.13;;;26.11;nan
80137;BME280;69466;55.948;37.484;2023-07-31T12:03:50;98780.00;;;26.02;nan
80137;BME280;69466;55.948;37.484;2023-07-31T12:06:16;98789.22;;;25.94;nan
80137;BME280;69466;55.948;37.484;2023-07-31T12:08:42;98785.34;;;25.87;nan
80137;BME280;69466;55.948;37.484;2023-07-31T12:11:08;98786.25;;;25.79;nan
80137;BME280;69466;55.948;37.484;2023-07-31T12:13:39;98783.06;;;25.68;nan
80137;BME280;69466;55.948;37.484;2023-07-31T12:16:05;98790.72;;;25.71;nan
80137;BME280;69466;55.948;37.484;2023-07-31T12:18:36;98792.53;;;25.67;nan
80137;BME280;69466;55.948;37.484;2023-07-31T12:21:05;98803.06;;;25.62;nan
80137;BME280;69466;55.948;37.484;2023-07-31T12:23:33;98807.19;;;25.55;nan
80137;BME280;69466;55.948;37.484;2023-07-31T12:26:08;98793.28;;;25.55;nan
80137;BME280;69466;55.948;37.484;2023-07-31T12:28:37;98794.75;;;25.53;nan
80137;BME280;69466;55.948;37.484;2023-07-31T12:31:04;98802.19;;;25.40;nan
80137;BME280;69466;55.948;37.484;2023-07-31T12:33:34;98792.84;;;25.45;nan
80137;BME280;69466;55.948;37.484;2023-07-31T12:36:07;98800.66;;;25.51;nan
80137;BME280;69466;55.948;37.484;2023-07-31T12:38:33;98798.34;;;25.53;nan
80137;BME280;69466;55.948;37.484;2023-07-31T12:40:59;98787.66;;;25.64;nan
80137;BME280;69466;55.948;37.484;2023-07-31T12:43:25;98796.22;;;25.80;nan
80137;BME280;69466;55.948;37.484;2023-07-31T12:45:51;98800.81;;;25.76;nan
80137;BME280;69466;55.948;37.484;2023-07-31T12:48:17;98798.31;;;25.83;nan
80137;BME280;69466;55.948;37.484;2023-07-31T12:50:43;98789.66;;;25.84;nan
80137;BME280;69466;55.948;37.484;2023-07-31T12:53:09;98793.50;;;25.71;nan
80137;BME280;69466;55.948;37.484;2023-07-31T12:55:35;98792.91;;;25.66;nan
80137;BME280;69466;55.948;37.484;2023-07-31T12:58:03;98784.28;;;25.58;nan
80137;BME280;69466;55.948;37.484;2023-07-31T13:00:29;98787.81;;;25.68;nan
80137;BME280;69466;55.948;37.484;2023-07-31T13:02:55;98791.59;;;25.63;nan
80137;BME280;69466;55.948;37.484;2023-07-31T13:05:21;98787.19;;;25.62;nan
80137;BME280;69466;55.948;37.484;2023-07-31T13:07:48;98785.03;;;25.68;nan
80137;BME280;69466;55.948;37.484;2023-07-31T13:10:14;98792.75;;;25.62;nan
80137;BME280;69466;55.948;37.484;2023-07-31T13:12:40;98784.88;;;25.64;nan
80137;BME280;69466;55.948;37.484;2023-07-31T13:15:06;98785.72;;;25.65;nan
80137;BME280;69466;55.948;37.484;2023-07-31T13:17:35;98785.59;;;25.61;nan
80137;BME280;69466;55.948;37.484;2023-07-31T13:20:02;98785.59;;;25.61;nan
80137;BME280;69466;55.948;37.484;2023-07-31T13:22:31;98780.47;;;25.63;nan